Time;durP1;ratioP1;P1;durP2;ratioP2;P2;SDS_P1;SDS_P2;PMS_P1;PMS_P2;Temp;Humidity;BMP_temperature;BMP_pressure;BME280_temperature;BME280_humidity;BME280_pressure;Samples;Min_cycle;Max_cycle;Signal;HPM_P1;HPM_P2
2021/06/23 00:00:27;;;;;;;9.45;6.68;;;23.60;75.10;;;;;;5096215;28;20024;-71
2021/06/23 00:02:54;;;;;;;20.48;7.72;;;23.50;75.20;;;;;;5107585;28;20030;-70
2021/06/23 00:05:20;;;;;;;13.52;7.88;;;23.50;76.10;;;;;;5102528;28;20470;-70
2021/06/23 00:07:46;;;;;;;11.30;7.63;;;23.40;76.10;;;;;;5114372;28;20038;-71
2021/06/23 00:10:14;;;;;;;7.93;7.10;;;23.40;76.20;;;;;;5115172;28;20098;-70
2021/06/23 00:12:41;;;;;;;7.70;6.88;;;23.40;76.60;;;;;;5110571;28;20415;-70
2021/06/23 00:15:09;;;;;;;8.77;6.65;;;23.30;76.90;;;;;;5114324;28;20415;-70
2021/06/23 00:17:35;;;;;;;7.78;6.53;;;23.30;77.00;;;;;;5111840;28;20035;-70
2021/06/23 00:20:00;;;;;;;7.28;6.40;;;23.30;77.50;;;;;;5109500;28;20020;-70
2021/06/23 00:22:26;;;;;;;8.50;6.68;;;23.30;77.60;;;;;;5113818;28;20019;-70
2021/06/23 00:24:52;;;;;;;7.13;6.20;;;23.30;78.60;;;;;;5114309;28;20030;-70
2021/06/23 00:27:18;;;;;;;7.88;6.97;;;23.30;78.00;;;;;;5100576;28;20404;-70
2021/06/23 00:29:44;;;;;;;8.70;6.55;;;23.30;78.10;;;;;;5111460;28;20027;-70
2021/06/23 00:32:15;;;;;;;6.20;5.60;;;23.20;78.30;;;;;;5106986;28;20102;-70
2021/06/23 00:34:40;;;;;;;6.38;5.78;;;23.20;77.70;;;;;;5109504;28;20028;-70
2021/06/23 00:37:06;;;;;;;7.22;5.82;;;23.30;78.60;;;;;;5114458;28;20038;-70
2021/06/23 00:39:32;;;;;;;6.03;5.43;;;23.20;78.70;;;;;;5113973;28;20072;-70
2021/06/23 00:41:58;;;;;;;5.25;4.75;;;23.20;78.50;;;;;;5109555;28;20419;-70
2021/06/23 00:44:24;;;;;;;5.18;4.55;;;23.20;78.60;;;;;;5101955;28;20035;-71
2021/06/23 00:46:50;;;;;;;5.20;4.80;;;23.20;78.70;;;;;;5093023;28;20137;-71
2021/06/23 00:49:17;;;;;;;5.25;4.80;;;23.20;78.80;;;;;;5094162;28;20051;-70
2021/06/23 00:51:44;;;;;;;6.53;5.00;;;23.10;78.90;;;;;;5093991;28;20497;-70
2021/06/23 00:54:11;;;;;;;5.68;4.78;;;23.10;78.90;;;;;;5093655;28;20521;-71
2021/06/23 00:56:38;;;;;;;5.80;5.30;;;23.10;78.90;;;;;;5093764;28;20485;-70
2021/06/23 00:59:05;;;;;;;5.78;5.20;;;23.10;79.70;;;;;;5093997;28;20128;-71
2021/06/23 01:01:33;;;;;;;5.18;4.68;;;23.10;78.90;;;;;;5111232;28;20549;-70
2021/06/23 01:04:00;;;;;;;4.68;4.25;;;23.10;79.00;;;;;;5112309;28;20084;-70
2021/06/23 01:06:27;;;;;;;5.43;4.82;;;23.00;79.00;;;;;;5112286;28;20484;-70
2021/06/23 01:08:53;;;;;;;7.65;4.88;;;23.00;79.10;;;;;;5113774;28;20027;-70
2021/06/23 01:11:21;;;;;;;5.78;4.88;;;23.00;79.00;;;;;;5103671;28;20028;-70
2021/06/23 01:13:56;;;;;;;9.23;5.05;;;23.00;78.70;;;;;;5107094;28;20148;-71
2021/06/23 01:16:23;;;;;;;4.95;4.43;;;22.90;78.60;;;;;;5107347;28;20397;-70
2021/06/23 01:18:50;;;;;;;9.00;4.50;;;22.90;78.70;;;;;;5102221;28;20031;-71
2021/06/23 01:21:16;;;;;;;6.05;4.63;;;22.80;78.70;;;;;;5113867;28;20036;-70
2021/06/23 01:23:42;;;;;;;5.43;4.80;;;22.80;79.00;;;;;;5104564;27;20403;-70
2021/06/23 01:26:07;;;;;;;4.68;4.28;;;22.80;79.20;;;;;;5093424;28;20099;-70
2021/06/23 01:28:33;;;;;;;5.03;4.43;;;22.80;79.60;;;;;;5107834;28;20051;-70
2021/06/23 01:30:59;;;;;;;6.07;4.45;;;22.80;79.60;;;;;;5099804;28;20020;-70
2021/06/23 01:33:27;;;;;;;5.90;4.82;;;22.80;79.70;;;;;;5109107;28;20032;-70
2021/06/23 01:35:53;;;;;;;4.68;4.20;;;22.80;79.80;;;;;;5092747;28;20024;-70
2021/06/23 01:38:20;;;;;;;4.43;4.13;;;22.80;80.20;;;;;;5107052;28;20027;-70
2021/06/23 01:40:46;;;;;;;5.63;4.88;;;22.80;80.30;;;;;;5112241;28;20412;-70
2021/06/23 01:43:12;;;;;;;6.30;4.88;;;22.80;79.80;;;;;;5112613;28;20028;-71
2021/06/23 01:45:38;;;;;;;9.13;5.25;;;22.80;79.30;;;;;;5105469;28;20025;-70
2021/06/23 01:48:05;;;;;;;5.70;5.03;;;22.70;79.00;;;;;;5094773;28;20027;-70
2021/06/23 01:50:31;;;;;;;6.97;4.68;;;22.70;79.10;;;;;;5093409;28;20044;-71
2021/06/23 01:52:57;;;;;;;4.90;4.22;;;22.70;79.30;;;;;;5094262;28;20038;-70
2021/06/23 01:55:29;;;;;;;5.28;4.78;;;22.60;79.20;;;;;;5112218;28;20047;-70
2021/06/23 01:58:02;;;;;;;7.95;5.10;;;22.60;79.20;;;;;;5097477;27;20024;-70
2021/06/23 02:00:53;;;;;;;5.25;4.80;;;22.60;79.00;;;;;;5093402;28;20024;-70
2021/06/23 02:03:38;;;;;;;6.60;5.00;;;22.60;78.40;;;;;;5093404;28;20030;-70
2021/06/23 02:06:07;;;;;;;6.93;5.18;;;22.60;78.90;;;;;;5093442;28;20488;-70
2021/06/23 02:08:59;;;;;;;5.28;4.85;;;22.60;79.40;;;;;;5093315;28;20028;-70
2021/06/23 02:11:38;;;;;;;11.20;5.20;;;22.60;78.30;;;;;;5081490;28;20028;-70
2021/06/23 02:14:25;;;;;;;5.63;5.10;;;22.60;78.90;;;;;;5093193;28;20099;-71
2021/06/23 02:16:55;;;;;;;5.72;5.03;;;22.50;79.20;;;;;;5095191;28;20478;-71
2021/06/23 02:19:21;;;;;;;6.43;4.97;;;22.50;79.50;;;;;;5103458;28;20032;-70
2021/06/23 02:21:47;;;;;;;5.22;4.32;;;22.60;79.90;;;;;;5108276;28;20035;-70
2021/06/23 02:24:13;;;;;;;5.80;4.53;;;22.60;79.90;;;;;;5092951;28;20024;-70
2021/06/23 02:26:39;;;;;;;5.10;4.60;;;22.50;79.90;;;;;;5092997;28;20091;-70
2021/06/23 02:29:06;;;;;;;5.22;4.40;;;22.60;80.10;;;;;;5093085;28;20178;-70
2021/06/23 02:31:37;;;;;;;6.78;4.78;;;22.60;80.20;;;;;;5110906;28;20492;-70
2021/06/23 02:34:09;;;;;;;5.05;4.55;;;22.60;80.10;;;;;;5111975;28;20031;-70
2021/06/23 02:36:37;;;;;;;4.70;4.28;;;22.60;80.30;;;;;;5112186;28;20066;-70
2021/06/23 02:39:05;;;;;;;6.88;4.88;;;22.60;80.60;;;;;;5103622;28;20370;-70
2021/06/23 02:41:32;;;;;;;5.32;4.82;;;22.60;80.10;;;;;;5092875;28;20032;-70
2021/06/23 02:43:59;;;;;;;4.90;4.43;;;22.60;80.10;;;;;;5092967;28;20382;-70
2021/06/23 02:46:25;;;;;;;6.15;5.13;;;22.60;80.30;;;;;;5093193;28;20039;-70
2021/06/23 02:48:54;;;;;;;6.00;5.28;;;22.60;80.00;;;;;;5102807;28;20024;-70
2021/06/23 02:51:26;;;;;;;7.88;5.00;;;22.60;79.90;;;;;;5113388;28;20482;-70
2021/06/23 02:53:56;;;;;;;7.72;4.93;;;22.60;79.70;;;;;;5111218;28;20092;-70
2021/06/23 02:56:23;;;;;;;6.57;4.90;;;22.60;80.00;;;;;;5113312;28;20055;-70
2021/06/23 02:58:50;;;;;;;5.05;4.55;;;22.60;80.60;;;;;;5111430;28;20098;-70
2021/06/23 03:01:17;;;;;;;6.03;4.65;;;22.60;80.80;;;;;;5112948;28;20504;-70
2021/06/23 03:03:43;;;;;;;5.78;4.80;;;22.70;81.10;;;;;;5113109;28;20055;-70
2021/06/23 03:06:10;;;;;;;4.70;4.30;;;22.70;81.90;;;;;;5113150;28;20016;-70
2021/06/23 03:08:38;;;;;;;6.65;5.25;;;22.80;81.30;;;;;;5105769;28;20020;-71
2021/06/23 03:11:07;;;;;;;4.85;4.38;;;22.80;81.40;;;;;;5092835;28;20058;-70
2021/06/23 03:13:33;;;;;;;6.75;4.55;;;22.80;81.30;;;;;;5092797;28;20031;-70
2021/06/23 03:15:59;;;;;;;5.00;4.60;;;22.80;81.80;;;;;;5092744;28;20021;-71
2021/06/23 03:18:28;;;;;;;4.43;4.03;;;22.90;81.80;;;;;;5096415;28;20536;-71
2021/06/23 03:20:54;;;;;;;5.22;4.25;;;22.90;81.80;;;;;;5096529;28;20032;-70
2021/06/23 03:23:20;;;;;;;7.05;5.18;;;22.90;81.80;;;;;;5107322;28;20025;-70
2021/06/23 03:25:46;;;;;;;9.73;5.63;;;23.00;81.80;;;;;;5115598;28;20035;-70
2021/06/23 03:28:12;;;;;;;5.45;4.97;;;23.00;81.50;;;;;;5116009;28;20034;-70
2021/06/23 03:30:39;;;;;;;6.78;4.60;;;23.00;81.30;;;;;;5116789;28;20028;-71
2021/06/23 03:33:05;;;;;;;5.55;5.05;;;23.00;81.30;;;;;;5115012;28;20378;-70
2021/06/23 03:35:32;;;;;;;8.00;4.80;;;23.00;82.20;;;;;;5116726;28;20032;-71
2021/06/23 03:37:58;;;;;;;5.75;5.22;;;23.00;81.40;;;;;;5115016;28;20043;-70
2021/06/23 03:40:24;;;;;;;7.03;6.15;;;23.00;81.20;;;;;;5099803;28;20062;-70
2021/06/23 03:42:52;;;;;;;5.95;5.00;;;23.00;80.80;;;;;;5095989;28;20081;-70
2021/06/23 03:45:19;;;;;;;10.30;5.57;;;23.00;80.70;;;;;;5096082;28;20363;-70
2021/06/23 03:47:45;;;;;;;6.03;5.07;;;23.00;80.50;;;;;;5096301;28;20016;-70
2021/06/23 03:50:12;;;;;;;6.70;4.78;;;23.00;80.70;;;;;;5095582;28;20085;-70
2021/06/23 03:52:38;;;;;;;7.03;5.05;;;23.00;80.90;;;;;;5097417;28;20030;-70
2021/06/23 03:55:07;;;;;;;11.02;5.47;;;23.00;80.90;;;;;;5116306;28;20388;-70
2021/06/23 03:57:33;;;;;;;7.80;5.30;;;23.00;80.80;;;;;;5114925;28;20107;-70
2021/06/23 03:59:59;;;;;;;5.88;5.32;;;23.00;80.90;;;;;;5098846;27;20422;-70
2021/06/23 04:02:25;;;;;;;15.88;5.97;;;23.00;80.90;;;;;;5095585;28;20028;-70
2021/06/23 04:04:51;;;;;;;6.05;4.82;;;23.00;80.90;;;;;;5094262;28;20086;-70
2021/06/23 04:07:17;;;;;;;5.70;5.13;;;23.00;81.10;;;;;;5094397;28;20107;-70
2021/06/23 04:09:43;;;;;;;10.60;5.65;;;23.10;81.00;;;;;;5095334;28;20024;-70
2021/06/23 04:12:11;;;;;;;8.20;5.50;;;23.00;80.90;;;;;;5097497;28;20043;-70
2021/06/23 04:14:37;;;;;;;8.65;5.97;;;23.10;80.90;;;;;;5101501;28;20035;-70
2021/06/23 04:17:03;;;;;;;9.07;6.13;;;23.10;80.90;;;;;;5095814;28;20026;-70
2021/06/23 04:19:29;;;;;;;6.68;5.20;;;23.10;81.00;;;;;;5101689;28;20024;-70
2021/06/23 04:21:55;;;;;;;9.95;6.88;;;23.10;80.90;;;;;;5095318;28;20039;-70
2021/06/23 04:24:21;;;;;;;8.30;6.25;;;23.10;80.90;;;;;;5110367;28;20032;-70
2021/06/23 04:26:47;;;;;;;6.00;5.40;;;23.10;81.00;;;;;;5115282;28;20020;-70
2021/06/23 04:29:13;;;;;;;8.18;4.93;;;23.10;80.90;;;;;;5109234;28;20031;-70
2021/06/23 04:31:40;;;;;;;5.88;5.35;;;23.20;81.20;;;;;;5111247;28;20385;-71
2021/06/23 04:34:06;;;;;;;6.70;5.65;;;23.20;81.20;;;;;;5113625;27;20111;-70
2021/06/23 04:36:32;;;;;;;6.13;5.30;;;23.20;81.00;;;;;;5113712;28;20443;-71
2021/06/23 04:38:58;;;;;;;14.93;7.72;;;23.30;81.10;;;;;;5112194;28;20493;-70
2021/06/23 04:41:24;;;;;;;17.30;8.48;;;23.30;80.50;;;;;;5093563;28;20024;-70
2021/06/23 04:43:49;;;;;;;15.07;8.80;;;23.30;80.40;;;;;;5094544;28;20051;-70
2021/06/23 04:46:15;;;;;;;21.73;9.73;;;23.30;80.40;;;;;;5094738;28;20023;-70
2021/06/23 04:48:41;;;;;;;14.15;7.80;;;23.30;80.50;;;;;;5094941;28;20035;-70
2021/06/23 04:51:07;;;;;;;13.80;7.18;;;23.30;80.40;;;;;;5094600;28;20066;-70
2021/06/23 04:53:33;;;;;;;12.90;6.55;;;23.30;80.20;;;;;;5094643;28;20048;-71
2021/06/23 04:55:59;;;;;;;9.90;7.80;;;23.30;80.50;;;;;;5094625;28;20036;-70
2021/06/23 04:58:25;;;;;;;10.25;7.43;;;23.30;80.30;;;;;;5106613;28;20019;-70
2021/06/23 05:00:51;;;;;;;11.18;7.90;;;23.30;80.20;;;;;;5096965;28;20377;-70
2021/06/23 05:03:16;;;;;;;9.40;7.40;;;23.30;80.40;;;;;;5094434;28;20024;-70
2021/06/23 05:05:42;;;;;;;11.88;7.45;;;23.40;80.70;;;;;;5093164;28;20028;-70
2021/06/23 05:08:08;;;;;;;10.05;6.93;;;23.40;80.90;;;;;;5094248;28;20024;-70
2021/06/23 05:10:34;;;;;;;8.10;6.70;;;23.40;80.90;;;;;;5099695;28;20385;-70
2021/06/23 05:13:00;;;;;;;8.88;7.55;;;23.50;80.90;;;;;;5113739;28;20027;-70
2021/06/23 05:15:26;;;;;;;9.52;7.03;;;23.50;80.70;;;;;;5094094;28;20031;-70
2021/06/23 05:17:53;;;;;;;8.50;7.53;;;23.60;80.70;;;;;;5094262;28;20104;-70
2021/06/23 05:20:20;;;;;;;12.35;8.38;;;23.70;80.60;;;;;;5114115;28;20027;-70
2021/06/23 05:22:50;;;;;;;19.40;8.27;;;23.70;80.50;;;;;;5113226;28;20028;-70
2021/06/23 05:25:19;;;;;;;13.23;7.90;;;23.70;80.10;;;;;;5114393;28;20027;-70
2021/06/23 05:27:45;;;;;;;15.43;7.15;;;23.70;79.60;;;;;;5114496;28;20012;-70
2021/06/23 05:30:12;;;;;;;17.92;7.93;;;23.80;80.00;;;;;;5112658;28;20024;-70
2021/06/23 05:32:37;;;;;;;21.08;7.28;;;23.80;79.60;;;;;;5093933;28;20106;-70
2021/06/23 05:35:04;;;;;;;22.65;7.28;;;23.80;79.30;;;;;;5112003;28;20098;-70
2021/06/23 05:37:31;;;;;;;12.95;7.05;;;23.80;79.00;;;;;;5114214;28;20080;-70
2021/06/23 05:39:56;;;;;;;12.52;7.28;;;23.80;78.70;;;;;;5109213;28;20099;-71
2021/06/23 05:42:23;;;;;;;13.13;7.55;;;23.80;78.70;;;;;;5093600;28;20115;-70
2021/06/23 05:44:48;;;;;;;10.52;6.90;;;23.90;78.40;;;;;;5106196;28;20058;-70
2021/06/23 05:47:15;;;;;;;12.20;8.27;;;23.90;78.20;;;;;;5111742;28;20028;-70
2021/06/23 05:49:41;;;;;;;9.43;7.80;;;23.90;77.50;;;;;;5104634;28;20046;-70
2021/06/23 05:52:06;;;;;;;10.63;7.45;;;23.90;77.00;;;;;;5104785;28;20032;-70
2021/06/23 05:54:32;;;;;;;7.20;6.22;;;23.90;76.90;;;;;;5093253;28;20088;-70
2021/06/23 05:56:58;;;;;;;10.15;6.20;;;24.00;77.50;;;;;;5093131;28;20036;-70
2021/06/23 05:59:24;;;;;;;7.35;6.15;;;24.00;77.30;;;;;;5102430;28;20097;-70
2021/06/23 06:01:51;;;;;;;7.53;6.07;;;24.10;77.30;;;;;;5110222;28;20024;-70
2021/06/23 06:04:16;;;;;;;11.93;6.65;;;24.10;77.10;;;;;;5111884;28;20039;-70
2021/06/23 06:06:43;;;;;;;9.55;6.43;;;24.20;76.20;;;;;;5113398;28;20019;-70
2021/06/23 06:09:09;;;;;;;9.55;6.65;;;24.20;76.30;;;;;;5103024;28;20024;-70
2021/06/23 06:11:38;;;;;;;14.18;5.65;;;24.20;76.00;;;;;;5099075;28;20465;-70
2021/06/23 06:14:04;;;;;;;13.18;7.45;;;24.30;76.30;;;;;;5107744;28;20408;-70
2021/06/23 06:16:29;;;;;;;8.27;6.70;;;24.30;75.70;;;;;;5101951;28;20020;-70
2021/06/23 06:18:56;;;;;;;11.77;6.30;;;24.40;75.00;;;;;;5107075;28;20039;-70
2021/06/23 06:21:23;;;;;;;9.25;6.15;;;24.40;75.20;;;;;;5091670;28;20073;-70
2021/06/23 06:23:48;;;;;;;7.25;6.45;;;24.40;75.10;;;;;;5091612;28;20095;-70
2021/06/23 06:26:14;;;;;;;11.20;6.15;;;24.50;75.90;;;;;;5091741;28;20052;-70
2021/06/23 06:28:40;;;;;;;9.55;6.35;;;24.60;76.60;;;;;;5092732;28;20016;-70
2021/06/23 06:31:06;;;;;;;9.82;6.70;;;24.70;75.70;;;;;;5100457;28;20050;-70
2021/06/23 06:33:33;;;;;;;9.88;6.40;;;24.80;74.60;;;;;;5109089;28;20020;-70
2021/06/23 06:35:58;;;;;;;9.00;5.78;;;24.90;75.00;;;;;;5100796;28;20453;-70
2021/06/23 06:38:24;;;;;;;8.50;5.68;;;25.10;75.80;;;;;;5099141;28;20103;-70
2021/06/23 06:40:50;;;;;;;7.88;6.10;;;25.20;75.90;;;;;;5111988;28;20027;-70
2021/06/23 06:43:16;;;;;;;10.15;5.88;;;25.30;74.60;;;;;;5103817;28;20024;-70
2021/06/23 06:45:42;;;;;;;12.32;6.05;;;25.50;73.90;;;;;;5103261;28;20024;-70
2021/06/23 06:48:08;;;;;;;21.35;6.72;;;25.60;74.00;;;;;;5106324;28;20385;-70
2021/06/23 06:50:34;;;;;;;8.57;6.45;;;25.70;72.80;;;;;;5096095;28;20442;-70
2021/06/23 06:53:00;;;;;;;15.85;5.95;;;25.80;72.10;;;;;;5106074;28;20019;-70
2021/06/23 06:55:26;;;;;;;7.82;5.30;;;25.90;71.40;;;;;;5117414;28;20031;-70
2021/06/23 06:57:52;;;;;;;7.07;5.00;;;26.00;70.90;;;;;;5116732;28;20019;-70
2021/06/23 07:00:22;;;;;;;6.55;4.60;;;26.10;72.50;;;;;;5105696;28;20058;-71
2021/06/23 07:02:49;;;;;;;7.20;4.97;;;26.30;72.20;;;;;;5100303;28;20023;-70
2021/06/23 07:05:14;;;;;;;14.93;5.13;;;26.50;73.10;;;;;;5102324;28;20102;-70
2021/06/23 07:07:40;;;;;;;9.70;4.93;;;26.60;71.90;;;;;;5109605;28;20119;-70
2021/06/23 07:10:07;;;;;;;6.57;4.55;;;26.70;70.60;;;;;;5116358;28;20094;-70
2021/06/23 07:12:34;;;;;;;7.18;4.72;;;26.80;69.10;;;;;;5110824;28;20023;-71
2021/06/23 07:15:00;;;;;;;7.63;5.28;;;26.90;68.60;;;;;;5116798;28;20516;-70
2021/06/23 07:17:26;;;;;;;5.72;4.95;;;26.90;68.40;;;;;;5116985;28;20485;-70
2021/06/23 07:19:52;;;;;;;6.47;4.82;;;27.00;68.70;;;;;;5105531;28;20115;-70
2021/06/23 07:22:18;;;;;;;9.68;5.32;;;27.00;68.00;;;;;;5111265;28;20038;-70
2021/06/23 07:24:45;;;;;;;6.43;4.50;;;27.10;67.00;;;;;;5109251;28;20031;-70
2021/06/23 07:27:10;;;;;;;7.07;4.50;;;27.10;68.20;;;;;;5100754;28;20019;-70
2021/06/23 07:29:36;;;;;;;13.20;5.22;;;27.20;69.20;;;;;;5099850;28;20049;-70
2021/06/23 07:32:05;;;;;;;5.75;4.20;;;27.30;67.80;;;;;;5106169;28;20101;-70
2021/06/23 07:37:04;;;;;;;4.97;4.25;;;27.50;68.00;;;;;;5111343;28;20028;-70
2021/06/23 07:39:31;;;;;;;8.05;5.28;;;27.60;66.90;;;;;;5107538;28;20016;-70
2021/06/23 07:41:57;;;;;;;8.00;5.00;;;27.70;66.40;;;;;;5101034;28;20024;-70
2021/06/23 07:44:42;;;;;;;6.20;4.95;;;27.70;66.00;;;;;;5101724;28;20081;-70
2021/06/23 07:47:17;;;;;;;4.57;3.95;;;27.80;65.90;;;;;;5115446;28;20016;-70
2021/06/23 07:49:43;;;;;;;7.28;3.85;;;27.90;64.00;;;;;;5115533;28;20093;-70
2021/06/23 08:10:59;;;;;;;6.97;4.32;;;28.40;63.00;;;;;;5109986;28;19912;-77
2021/06/23 08:13:25;;;;;;;6.97;4.65;;;28.30;59.40;;;;;;5106253;27;20279;-77
2021/06/23 08:15:51;;;;;;;21.35;6.53;;;28.30;60.30;;;;;;5096091;28;20055;-78
2021/06/23 08:18:20;;;;;;;15.05;6.55;;;28.20;59.30;;;;;;5114318;28;20389;-78
2021/06/23 08:20:50;;;;;;;10.20;5.47;;;28.10;60.00;;;;;;5112365;28;20042;-77
2021/06/23 08:23:16;;;;;;;7.85;4.82;;;27.90;59.30;;;;;;5114024;28;20366;-77
2021/06/23 08:25:42;;;;;;;6.90;4.65;;;27.80;59.00;;;;;;5109272;28;20096;-77
2021/06/23 08:28:08;;;;;;;4.18;3.47;;;27.70;58.70;;;;;;5102017;28;20480;-77
2021/06/23 08:30:34;;;;;;;4.18;3.58;;;27.60;59.20;;;;;;5114425;28;20378;-75
2021/06/23 08:33:01;;;;;;;5.30;3.75;;;27.50;60.10;;;;;;5112948;28;20026;-78
2021/06/23 08:35:27;;;;;;;5.30;4.15;;;27.40;59.60;;;;;;5100967;28;20024;-79
2021/06/23 08:37:55;;;;;;;12.35;5.00;;;27.40;59.80;;;;;;5094388;28;20212;-79
2021/06/23 08:40:20;;;;;;;12.02;4.95;;;27.30;59.50;;;;;;5103316;28;20026;-79
2021/06/23 08:42:46;;;;;;;5.03;4.25;;;27.30;59.20;;;;;;5097983;28;20103;-78
2021/06/23 08:45:13;;;;;;;4.90;4.40;;;27.30;59.40;;;;;;5093247;28;20392;-74
2021/06/23 08:47:41;;;;;;;3.55;3.25;;;27.40;60.10;;;;;;5107966;28;20028;-76
2021/06/23 08:50:09;;;;;;;4.03;3.40;;;27.50;59.50;;;;;;5106514;28;20055;-75
2021/06/23 08:52:35;;;;;;;7.03;3.25;;;27.60;60.00;;;;;;5104968;28;20016;-76
2021/06/23 08:55:01;;;;;;;9.80;4.07;;;27.70;59.90;;;;;;5109197;28;20515;-76
2021/06/23 08:57:27;;;;;;;4.55;4.07;;;27.90;59.50;;;;;;5099394;28;20093;-77
2021/06/23 08:59:53;;;;;;;4.82;4.25;;;28.00;58.70;;;;;;5100303;28;20028;-77
2021/06/23 09:02:19;;;;;;;7.32;5.10;;;28.20;58.20;;;;;;5107558;28;20399;-77
2021/06/23 09:05:03;;;;;;;6.03;4.07;;;28.20;57.60;;;;;;5109874;28;20035;-76
2021/06/23 09:07:41;;;;;;;9.00;5.32;;;28.20;57.80;;;;;;5113839;28;20026;-78
2021/06/23 09:10:23;;;;;;;5.93;5.30;;;28.20;57.00;;;;;;5101554;28;20020;-78
2021/06/23 09:13:01;;;;;;;4.60;4.00;;;28.20;57.20;;;;;;5103841;28;20438;-78
2021/06/23 09:15:47;;;;;;;4.43;3.83;;;28.20;56.50;;;;;;5099780;28;20047;-80
2021/06/23 09:18:22;;;;;;;5.03;4.55;;;28.20;57.10;;;;;;5093112;28;20024;-76
2021/06/23 09:20:54;;;;;;;4.38;3.60;;;28.30;58.00;;;;;;5107481;28;20389;-78
2021/06/23 09:23:44;;;;;;;6.63;4.75;;;28.30;57.00;;;;;;5111054;28;20019;-79
2021/06/23 09:26:19;;;;;;;8.68;4.30;;;28.40;56.10;;;;;;5108107;28;20035;-79
2021/06/23 09:29:03;;;;;;;5.60;3.90;;;28.40;56.10;;;;;;5106816;28;20043;-79
2021/06/23 09:31:50;;;;;;;4.10;3.75;;;28.40;56.00;;;;;;5106705;28;20103;-78
2021/06/23 09:34:29;;;;;;;6.15;3.75;;;28.50;55.70;;;;;;5092644;28;20035;-78
2021/06/23 09:36:55;;;;;;;4.70;3.67;;;28.60;57.10;;;;;;5099323;28;20057;-77
2021/06/23 09:39:26;;;;;;;5.15;3.15;;;28.60;57.40;;;;;;5100351;28;20377;-78
2021/06/23 09:41:53;;;;;;;3.78;3.20;;;28.70;55.80;;;;;;5100711;28;20494;-79
2021/06/23 09:44:19;;;;;;;13.68;5.18;;;28.70;56.40;;;;;;5091518;28;20115;-78
2021/06/23 09:46:47;;;;;;;7.63;4.65;;;28.80;56.00;;;;;;5093177;28;20024;-77
2021/06/23 09:49:16;;;;;;;7.28;3.97;;;28.90;55.90;;;;;;5094925;28;20069;-79
2021/06/23 09:51:45;;;;;;;6.00;4.18;;;28.90;55.80;;;;;;5105425;28;20473;-76
2021/06/23 09:54:12;;;;;;;8.52;4.22;;;28.90;54.90;;;;;;5100217;28;20028;-76
2021/06/23 09:56:44;;;;;;;4.00;3.58;;;28.80;54.50;;;;;;5108407;28;20123;-77
2021/06/23 09:59:18;;;;;;;4.05;3.65;;;28.80;56.20;;;;;;5104962;28;20020;-78
2021/06/23 10:01:44;;;;;;;4.80;4.30;;;28.70;55.70;;;;;;5105836;27;20433;-77
2021/06/23 10:04:10;;;;;;;4.75;3.30;;;28.80;56.90;;;;;;5111619;28;20545;-77
2021/06/23 10:06:45;;;;;;;5.45;3.90;;;28.70;54.90;;;;;;5102228;28;20107;-76
2021/06/23 10:09:25;;;;;;;7.60;4.03;;;28.80;55.20;;;;;;5097069;28;20022;-76
2021/06/23 10:11:57;;;;;;;5.30;4.40;;;28.80;55.80;;;;;;5105049;28;20022;-77
2021/06/23 10:14:25;;;;;;;7.90;5.15;;;28.80;55.40;;;;;;5092530;28;20031;-76
2021/06/23 10:16:54;;;;;;;8.38;5.80;;;28.80;55.20;;;;;;5112737;28;20027;-81
2021/06/23 10:19:20;;;;;;;5.75;3.80;;;28.90;54.00;;;;;;5112672;28;20031;-78
2021/06/23 10:21:46;;;;;;;6.00;4.63;;;28.90;53.50;;;;;;5105705;28;20032;-78
2021/06/23 10:24:14;;;;;;;5.47;4.25;;;28.90;53.80;;;;;;5095169;28;20066;-76
2021/06/23 10:26:46;;;;;;;8.45;6.43;;;28.90;52.20;;;;;;5112871;28;20016;-76
2021/06/23 10:29:15;;;;;;;6.05;5.25;;;28.90;53.80;;;;;;5107004;28;20028;-79
2021/06/23 10:31:41;;;;;;;6.32;5.00;;;28.90;53.60;;;;;;5103108;28;20030;-78
2021/06/23 10:34:09;;;;;;;5.22;4.18;;;28.90;54.50;;;;;;5111263;28;20034;-78
2021/06/23 10:36:35;;;;;;;3.45;2.70;;;29.00;53.70;;;;;;5110762;28;20499;-78
2021/06/23 10:39:03;;;;;;;7.90;2.65;;;29.00;53.70;;;;;;5091038;28;20024;-77
2021/06/23 10:41:39;;;;;;;2.92;2.50;;;29.10;53.40;;;;;;5096327;28;20543;-78
2021/06/23 10:44:27;;;;;;;3.88;2.72;;;29.10;53.40;;;;;;5103382;28;20035;-78
2021/06/23 10:46:58;;;;;;;6.15;3.60;;;29.20;52.00;;;;;;5111367;28;20019;-77
2021/06/23 10:49:44;;;;;;;5.53;3.75;;;29.20;53.80;;;;;;5109737;28;20044;-78
2021/06/23 10:52:20;;;;;;;5.22;3.88;;;29.20;53.20;;;;;;5104959;28;20107;-77
2021/06/23 10:54:49;;;;;;;3.60;3.30;;;29.30;54.40;;;;;;5112244;28;20079;-76
2021/06/23 10:57:40;;;;;;;4.60;3.08;;;29.40;52.90;;;;;;5112048;28;20023;-77
2021/06/23 11:00:12;;;;;;;3.35;2.60;;;29.40;51.60;;;;;;5111547;28;20027;-76
2021/06/23 11:02:42;;;;;;;6.35;2.72;;;29.50;51.30;;;;;;5112206;28;20094;-77
2021/06/23 11:05:15;;;;;;;3.13;2.83;;;29.50;51.00;;;;;;5111650;28;20392;-79
2021/06/23 11:07:48;;;;;;;7.67;2.43;;;29.60;51.10;;;;;;5112372;28;20024;-77
2021/06/23 11:10:18;;;;;;;4.87;3.67;;;29.60;50.70;;;;;;5111498;28;20802;-76
2021/06/23 11:12:43;;;;;;;3.20;2.90;;;29.60;50.70;;;;;;5110007;28;20279;-76
2021/06/23 11:15:34;;;;;;;3.92;3.10;;;29.70;50.70;;;;;;5109836;28;20027;-78
2021/06/23 11:18:21;;;;;;;3.15;2.85;;;29.70;51.10;;;;;;5114370;28;20034;-76
2021/06/23 11:20:47;;;;;;;5.82;3.53;;;29.90;51.60;;;;;;5100731;28;20098;-78
2021/06/23 11:23:38;;;;;;;2.78;2.58;;;29.90;50.30;;;;;;5110823;28;20036;-76
2021/06/23 11:26:03;;;;;;;2.15;1.95;;;30.00;49.90;;;;;;5111990;28;20023;-78
2021/06/23 11:28:29;;;;;;;2.63;2.40;;;30.10;49.30;;;;;;5110894;28;20080;-75
2021/06/23 11:31:06;;;;;;;3.25;2.60;;;30.20;48.50;;;;;;5101007;28;20480;-75
2021/06/23 11:33:38;;;;;;;3.03;2.75;;;30.20;47.90;;;;;;5107038;28;20085;-76
2021/06/23 11:36:15;;;;;;;6.05;2.90;;;30.30;49.60;;;;;;5111792;28;20046;-75
2021/06/23 11:38:42;;;;;;;5.35;3.25;;;30.40;49.20;;;;;;5112050;28;20027;-75
2021/06/23 11:41:09;;;;;;;4.30;3.40;;;30.50;49.90;;;;;;5106862;28;20015;-74
2021/06/23 11:43:35;;;;;;;6.82;3.85;;;30.60;48.20;;;;;;5115443;28;20469;-74
2021/06/23 11:46:01;;;;;;;6.82;4.90;;;30.70;49.30;;;;;;5108828;28;20024;-74
2021/06/23 11:48:27;;;;;;;7.22;5.40;;;30.80;48.70;;;;;;5115301;28;20066;-74
2021/06/23 11:50:54;;;;;;;6.57;4.85;;;30.90;48.30;;;;;;5098224;28;20068;-73
2021/06/23 11:53:22;;;;;;;5.35;4.10;;;31.00;47.70;;;;;;5094778;28;20111;-73
2021/06/23 11:55:52;;;;;;;5.53;4.15;;;31.10;48.90;;;;;;5096096;28;20028;-73
2021/06/23 11:58:20;;;;;;;8.00;5.45;;;31.20;47.60;;;;;;5073109;28;20067;-73
2021/06/23 12:00:46;;;;;;;7.75;5.55;;;31.20;47.10;;;;;;5078969;28;20111;-72
2021/06/23 12:03:15;;;;;;;6.35;5.55;;;31.30;48.80;;;;;;5094719;28;20542;-72
2021/06/23 12:05:41;;;;;;;7.97;4.90;;;31.30;47.30;;;;;;5092748;28;20024;-70
2021/06/23 12:08:08;;;;;;;5.30;4.50;;;31.30;46.60;;;;;;5094794;28;20389;-69
2021/06/23 12:10:35;;;;;;;6.80;5.10;;;31.30;47.30;;;;;;5094465;28;20024;-69
2021/06/23 12:13:01;;;;;;;7.22;5.00;;;31.40;48.00;;;;;;5075405;28;20016;-68
2021/06/23 12:15:28;;;;;;;8.50;5.13;;;31.40;46.30;;;;;;5074365;28;20029;-68
2021/06/23 12:17:57;;;;;;;8.68;4.78;;;31.40;46.00;;;;;;5094089;28;20027;-68
2021/06/23 12:20:25;;;;;;;8.18;5.40;;;31.40;45.90;;;;;;5094119;28;20035;-69
2021/06/23 12:22:58;;;;;;;6.90;5.22;;;31.50;45.90;;;;;;5083520;28;20100;-68
2021/06/23 12:25:30;;;;;;;5.57;4.82;;;31.50;48.00;;;;;;5094196;28;20521;-68
2021/06/23 12:27:58;;;;;;;5.38;4.45;;;31.60;48.60;;;;;;5093965;28;20028;-68
2021/06/23 12:30:28;;;;;;;4.75;3.90;;;31.70;47.20;;;;;;5083472;28;20381;-68
2021/06/23 12:32:55;;;;;;;5.30;3.85;;;31.80;46.80;;;;;;5073887;28;20032;-68
2021/06/23 12:35:21;;;;;;;6.65;3.60;;;31.90;46.20;;;;;;5073738;28;20028;-68
2021/06/23 12:37:47;;;;;;;7.43;4.30;;;32.00;48.20;;;;;;5072307;28;20039;-68
2021/06/23 12:40:13;;;;;;;4.28;3.40;;;32.10;45.50;;;;;;5073472;28;20469;-69
2021/06/23 12:42:39;;;;;;;7.85;3.38;;;32.20;46.20;;;;;;5076684;28;20056;-69
2021/06/23 12:45:05;;;;;;;10.75;3.63;;;32.20;46.20;;;;;;5073605;28;20473;-69
2021/06/23 12:47:31;;;;;;;3.35;2.95;;;32.30;44.70;;;;;;5073467;28;20025;-68
2021/06/23 12:49:57;;;;;;;5.53;3.65;;;32.30;44.40;;;;;;5087932;28;20047;-69
2021/06/23 12:52:23;;;;;;;4.78;3.35;;;32.40;44.90;;;;;;5093409;28;20362;-69
2021/06/23 12:54:48;;;;;;;5.47;3.38;;;32.50;44.70;;;;;;5083769;28;20473;-68
2021/06/23 12:57:14;;;;;;;5.18;3.47;;;32.50;43.40;;;;;;5092975;28;20024;-68
2021/06/23 12:59:40;;;;;;;5.60;2.85;;;32.60;43.10;;;;;;5093429;28;20477;-69
2021/06/23 13:02:07;;;;;;;4.40;3.60;;;32.60;44.30;;;;;;5093214;28;20027;-68
2021/06/23 13:04:32;;;;;;;4.88;3.58;;;32.70;45.10;;;;;;5093302;28;20024;-69
2021/06/23 13:06:58;;;;;;;3.85;3.33;;;32.80;45.60;;;;;;5079395;28;20086;-68
2021/06/23 13:09:24;;;;;;;5.20;3.33;;;33.00;44.90;;;;;;5090570;28;20032;-67
2021/06/23 13:11:50;;;;;;;7.35;3.63;;;33.00;43.20;;;;;;5084648;28;20099;-68